Portada
METAR-TAF:

METAR-TAF

Aeroports :

Obihiro, Japó

latitud: 42-44N, longitud: 143-13E, altitud: 149 m

Observació

L'informe es va fer fa 9 hores i 3 minuts, a les 11:00 UTC
Vent 5 kt del Sud-Est
Temperatura 2°C
Humitat 55%
Pressió 1013 hPa
Visibilitat 10 km o més
Escasses núvols a una alçada de 4000 ft
Núvols disperses a una alçada de 13000 ft

METAR: RJCB 181100Z 14005KT 9999 FEW040 SCT130 02/M06 Q1013

Hora: 05:03 (20:03 UTC)

Pronòstic

L'informe es va fer fa 2 hores i 56 minuts, a les 17:07 UTC
Pronòstic vàlid del 18 a les 18 UTC al 20 a les 00 UTC
Vent 6 kt del Sud/Sud-Est
Visibilitat 10 km o més
Escasses núvols a una alçada de 4000 ft
Evolucionant progressivament
l' 19 a les 01 UTC al 19 a les 03 UTC
Vent 7 kt del Oest/Nord-Oest
Evolucionant progressivament
l' 19 a les 15 UTC al 19 a les 18 UTC
Vent 8 kt del Sud/Sud-Est

TAF: RJCB 181707Z 1818/2000 16006KT 9999 FEW040 BECMG 1901/1903 29007KT BECMG 1915/1918 15008KT

Observacions i pronòstics meteorològics de més de 4000 aeroports (METAR i TAF).

Les estacions disponibles són els punts grocs i vermells al mapa.

Posi el ratolí al punt desitjat per veure el nom de l'estació.

Feu clic per veure les observacions i els pronòstics meteorològics.

Per canviar el mapa: feu clic els botons verds amb una creu de color negre per apropar; al botó verd amb un guió per allunyar la imatge; o en les fletxes verdes per a mapes adjacents.


METAR-TAF: